Jupiter — WAK3719 — position and weather

sailwx.info

Track history (hours):
 
Tides and Currents Weather Stations Pressure Air Temp Water Temp Dewpoint Dewpoint Depression Visibility Wind Speed Wind Dir Waves Ship Positions

Jupiter

Owner: G & H Towing Company, GALVESTON, TX. More information available from US FCC via Universal Licensing System and Coast Guard Vessel Documentation Center.

Last reported at 2017-Sep-22 00:52 UTC. Time now 2017-Oct-18 00:19 UTC.
Position N 29°30' W 094°52'.
Warning: this ship's position is 25 days out of date.

Length 27 m; draft 5 m.

Type: Tug. MMSI: 366921780.

Date/timePositionNaut miles runAvg speedWind from/ knotsBaromVisibWave heightAir tempDewpointWater temp
2017-Sep-22 00:52N 29°30' W 094°52'410.0
2017-Sep-22 00:30N 29°33' W 094°54'5 9.9
2017-Sep-22 00:00N 29°37' W 094°57'5 9.1
2017-Sep-21 23:30N 29°41' W 094°59'3 5.4
2017-Sep-21 22:54N 29°44' W 095°01'2 4.1
2017-Sep-21 22:29N 29°42' W 095°01'2 3.6
2017-Sep-21 22:00N 29°41' W 094°59'0 0.0
2017-Sep-21 21:30N 29°41' W 094°59'0 0.0
2017-Sep-21 21:00N 29°41' W 094°59'0 0.0
2017-Sep-21 20:29N 29°41' W 094°59'1 1.1
2017-Sep-21 20:00N 29°41' W 094°60'0 0.5
2017-Sep-21 19:29N 29°41' W 094°59'1 1.3
2017-Sep-21 19:00N 29°41' W 094°59'3 6.2
2017-Sep-21 18:30N 29°38' W 094°58'3 6.5
2017-Sep-21 18:00N 29°35' W 094°56'3 6.9
2017-Sep-21 17:30N 29°32' W 094°54'2 0.8
2017-Sep-21 14:34N 29°30' W 094°52'110.4
2017-Sep-21 14:30N 29°31' W 094°53'510.0
2017-Sep-21 14:00N 29°35' W 094°56'4 8.0
2017-Sep-21 13:30N 29°37' W 095°00'1 2.2
2017-Sep-21 13:00N 29°37' W 095°01'0 0.2
2017-Sep-21 12:30N 29°37' W 095°01'0 0.2
2017-Sep-21 12:00N 29°37' W 095°01'0 0.3
2017-Sep-21 11:30N 29°37' W 095°01'0 0.8
2017-Sep-21 11:00N 29°37' W 095°02'0 0.0
2017-Sep-21 10:30N 29°37' W 095°02'0 0.0
2017-Sep-21 10:00N 29°37' W 095°02'0 0.6
2017-Sep-21 09:29N 29°37' W 095°01'0 0.3
2017-Sep-21 09:00N 29°37' W 095°01'0 0.5
2017-Sep-21 08:30N 29°37' W 095°01'1 2.1
2017-Sep-21 08:00N 29°37' W 095°00'0 0.0
2017-Sep-21 07:30N 29°37' W 095°00'0 0.0
2017-Sep-21 07:00N 29°37' W 095°00'0 0.0
2017-Sep-21 06:30N 29°37' W 095°00'0 0.0
2017-Sep-21 06:00N 29°37' W 095°00'2 4.8
2017-Sep-21 05:30N 29°37' W 094°57'2 4.0
2017-Sep-21 05:00N 29°35' W 094°56'3 6.9
2017-Sep-21 04:30N 29°37' W 094°60'2 2.9
2017-Sep-21 03:59N 29°37' W 095°01'1 2.1
2017-Sep-21 03:30N 29°37' W 095°00'1 2.1
2017-Sep-21 03:00N 29°37' W 095°02'0 0.0
2017-Sep-21 02:30N 29°37' W 095°02'0 0.0
2017-Sep-21 02:00N 29°37' W 095°02'0 0.0
2017-Sep-21 01:30N 29°37' W 095°02'0 0.5
2017-Sep-21 01:00N 29°37' W 095°01'3 6.3
2017-Sep-21 00:30N 29°37' W 094°58'510.3
2017-Sep-21 00:00N 29°33' W 094°54'  
2017-Sep-17 02:54N 29°23' W 094°53'  
2017-Sep-13 05:39N 29°30' W 094°52'1 9.7
2017-Sep-13 05:31N 29°31' W 094°53'5 9.8
2017-Sep-13 05:01N 29°35' W 094°56'3 6.8
2017-Sep-13 04:31N 29°37' W 094°59'2 3.6
2017-Sep-13 04:01N 29°37' W 095°01'0 0.9
2017-Sep-13 03:30N 29°37' W 095°01'0 0.8
2017-Sep-13 03:00N 29°37' W 095°01'0 0.2
2017-Sep-13 02:31N 29°37' W 095°02'0 0.0
2017-Sep-13 02:01N 29°37' W 095°02'0 0.5
2017-Sep-13 01:30N 29°37' W 095°01'0 0.4
2017-Sep-13 01:01N 29°37' W 095°01'1 2.6
2017-Sep-13 00:30N 29°37' W 094°60'4 8.3
2017-Sep-13 00:00N 29°35' W 094°56'510.5
2017-Sep-12 23:30N 29°30' W 094°52'  
Track history (hours):
 
Tides and Currents Weather Stations Pressure Air Temp Water Temp Dewpoint Dewpoint Depression Visibility Wind Speed Wind Dir Waves Ship Positions

Jupiter

Owner: G & H Towing Company, GALVESTON, TX. More information available from US FCC via Universal Licensing System and Coast Guard Vessel Documentation Center.

Last reported at 2017-Sep-22 00:52 UTC. Time now 2017-Oct-18 00:19 UTC.
Position N 29°30' W 094°52'.
Warning: this ship's position is 25 days out of date.

Length 27 m; draft 5 m.

Type: Tug. MMSI: 366921780.

Date/timePositionNaut miles runAvg speedWind from/ knotsBaromVisibWave heightAir tempDewpointWater temp
2017-Sep-22 00:52N 29°30' W 094°52'410.0
2017-Sep-22 00:30N 29°33' W 094°54'5 9.9
2017-Sep-22 00:00N 29°37' W 094°57'5 9.1
2017-Sep-21 23:30N 29°41' W 094°59'3 5.4
2017-Sep-21 22:54N 29°44' W 095°01'2 4.1
2017-Sep-21 22:29N 29°42' W 095°01'2 3.6
2017-Sep-21 22:00N 29°41' W 094°59'0 0.0
2017-Sep-21 21:30N 29°41' W 094°59'0 0.0
2017-Sep-21 21:00N 29°41' W 094°59'0 0.0
2017-Sep-21 20:29N 29°41' W 094°59'1 1.1
2017-Sep-21 20:00N 29°41' W 094°60'0 0.5
2017-Sep-21 19:29N 29°41' W 094°59'1 1.3
2017-Sep-21 19:00N 29°41' W 094°59'3 6.2
2017-Sep-21 18:30N 29°38' W 094°58'3 6.5
2017-Sep-21 18:00N 29°35' W 094°56'3 6.9
2017-Sep-21 17:30N 29°32' W 094°54'2 0.8
2017-Sep-21 14:34N 29°30' W 094°52'110.4
2017-Sep-21 14:30N 29°31' W 094°53'510.0
2017-Sep-21 14:00N 29°35' W 094°56'4 8.0
2017-Sep-21 13:30N 29°37' W 095°00'1 2.2
2017-Sep-21 13:00N 29°37' W 095°01'0 0.2
2017-Sep-21 12:30N 29°37' W 095°01'0 0.2
2017-Sep-21 12:00N 29°37' W 095°01'0 0.3
2017-Sep-21 11:30N 29°37' W 095°01'0 0.8
2017-Sep-21 11:00N 29°37' W 095°02'0 0.0
2017-Sep-21 10:30N 29°37' W 095°02'0 0.0
2017-Sep-21 10:00N 29°37' W 095°02'0 0.6
2017-Sep-21 09:29N 29°37' W 095°01'0 0.3
2017-Sep-21 09:00N 29°37' W 095°01'0 0.5
2017-Sep-21 08:30N 29°37' W 095°01'1 2.1
2017-Sep-21 08:00N 29°37' W 095°00'0 0.0
2017-Sep-21 07:30N 29°37' W 095°00'0 0.0
2017-Sep-21 07:00N 29°37' W 095°00'0 0.0
2017-Sep-21 06:30N 29°37' W 095°00'0 0.0
2017-Sep-21 06:00N 29°37' W 095°00'2 4.8
2017-Sep-21 05:30N 29°37' W 094°57'2 4.0
2017-Sep-21 05:00N 29°35' W 094°56'3 6.9
2017-Sep-21 04:30N 29°37' W 094°60'2 2.9
2017-Sep-21 03:59N 29°37' W 095°01'1 2.1
2017-Sep-21 03:30N 29°37' W 095°00'1 2.1
2017-Sep-21 03:00N 29°37' W 095°02'0 0.0
2017-Sep-21 02:30N 29°37' W 095°02'0 0.0
2017-Sep-21 02:00N 29°37' W 095°02'0 0.0
2017-Sep-21 01:30N 29°37' W 095°02'0 0.5
2017-Sep-21 01:00N 29°37' W 095°01'3 6.3
2017-Sep-21 00:30N 29°37' W 094°58'510.3
2017-Sep-21 00:00N 29°33' W 094°54'  
2017-Sep-17 02:54N 29°23' W 094°53'  
2017-Sep-13 05:39N 29°30' W 094°52'1 9.7
2017-Sep-13 05:31N 29°31' W 094°53'5 9.8
2017-Sep-13 05:01N 29°35' W 094°56'3 6.8
2017-Sep-13 04:31N 29°37' W 094°59'2 3.6
2017-Sep-13 04:01N 29°37' W 095°01'0 0.9
2017-Sep-13 03:30N 29°37' W 095°01'0 0.8
2017-Sep-13 03:00N 29°37' W 095°01'0 0.2
2017-Sep-13 02:31N 29°37' W 095°02'0 0.0
2017-Sep-13 02:01N 29°37' W 095°02'0 0.5
2017-Sep-13 01:30N 29°37' W 095°01'0 0.4
2017-Sep-13 01:01N 29°37' W 095°01'1 2.6
2017-Sep-13 00:30N 29°37' W 094°60'4 8.3
2017-Sep-13 00:00N 29°35' W 094°56'510.5
2017-Sep-12 23:30N 29°30' W 094°52'  

Dump ship's entire track history